^^

..:: Storico WU ::..




Lo storico viene creato da WUnderground con i dati che la stazione Meteomincio invia al loro server. L' aggiornamento viene fatto ogni 5 minuti circa, tuttavia possono esserci intervalli pił ampi a causa di errori, interruzioni di servizio o problemi nell' invio tramite FTP.


Storico stazione MeteoMincio
Giorno Sommario per Dicembre 27, 2022 Unità:  Inglese    Metrico   Entrambi
Giorno Settimana Mese Anno
  Max: Min: Media:
Temperatura: 50 °F 44.6 °F 48 °F
Dew Point: 48.2 °F 42.8 °F 46.6 °F
Umidità: 97% 91% 95%
Velocità vento: 5.6mph 0mph 1.6mph
Raffica: 6.8mph - -
Direzione- - SW
Pressione: 30.4 in 30.3 in -
Precipitazioni: 0 in    
 
 
Tabulato Dati per Dicembre 27, 2022
Ora Temperatura Dew Point Pressione Direzione Velocità vento Raffica Umidità Intensità pioggia (oraria) Info solare Situazione
00:04 48.2 °F 48.2 °F 30.3 in WSW 2.5 mph 3.7 mph 96% 0 in 0.00 W/m2 unknown
00:09 48.2 °F 48.2 °F 30.3 in West 3.1 mph 3.7 mph 96% 0 in 0.00 W/m2 unknown
00:14 48.2 °F 48.2 °F 30.3 in WNW 2.5 mph 3.7 mph 96% 0 in 0.00 W/m2 unknown
00:19 48.2 °F 48.2 °F 30.3 in West 2.5 mph 3.7 mph 96% 0 in 0.00 W/m2 unknown
00:24 48.2 °F 48.2 °F 30.3 in SW 1.9 mph 3.7 mph 96% 0 in 0.00 W/m2 unknown
00:29 48.2 °F 48.2 °F 30.3 in SW 2.5 mph 3.7 mph 96% 0 in 0.00 W/m2 unknown
00:34 48.2 °F 48.2 °F 30.3 in SW 2.5 mph 3.7 mph 96% 0 in 0.00 W/m2 unknown
00:39 48.2 °F 48.2 °F 30.3 in SSW 3.7 mph 3.7 mph 96% 0 in 0.00 W/m2 unknown
00:44 48.2 °F 48.2 °F 30.3 in SSW 4.3 mph 6.2 mph 96% 0 in 0.00 W/m2 unknown
00:49 48.2 °F 48.2 °F 30.3 in SSW 3.1 mph 6.2 mph 96% 0 in 0.00 W/m2 unknown
00:54 48.2 °F 48.2 °F 30.3 in SSW 2.5 mph 3.7 mph 96% 0 in 0.00 W/m2 unknown
00:59 48.2 °F 48.2 °F 30.3 in SW 2.5 mph 3.7 mph 96% 0 in 0.00 W/m2 unknown
01:04 48.2 °F 48.2 °F 30.3 in West 1.9 mph 3.7 mph 96% 0 in 0.00 W/m2 unknown
01:09 48.2 °F 48.2 °F 30.3 in West 1.2 mph 3.1 mph 96% 0 in 0.00 W/m2 unknown
01:14 48.2 °F 48.2 °F 30.3 in SW 1.2 mph 2.5 mph 96% 0 in 0.00 W/m2 unknown
01:19 48.2 °F 48.2 °F 30.3 in SSW 1.2 mph 1.9 mph 96% 0 in 0.00 W/m2 unknown
01:24 48.2 °F 48.2 °F 30.3 in WNW 1.2 mph 2.5 mph 96% 0 in 0.00 W/m2 unknown
01:29 48.2 °F 48.2 °F 30.3 in NNW 2.5 mph 3.7 mph 96% 0 in 0.00 W/m2 unknown
01:34 48.2 °F 48.2 °F 30.3 in NNW 1.2 mph 3.1 mph 96% 0 in 0.00 W/m2 unknown
01:39 48.2 °F 48.2 °F 30.3 in NNW 0.6 mph 1.2 mph 96% 0 in 0.00 W/m2 unknown
01:44 48.2 °F 48.2 °F 30.3 in NNW 1.2 mph 2.5 mph 96% 0 in 0.00 W/m2 unknown
01:49 48.2 °F 48.2 °F 30.3 in NW 1.2 mph 3.1 mph 96% 0 in 0.00 W/m2 unknown
01:54 48.2 °F 48.2 °F 30.3 in West 1.9 mph 3.7 mph 96% 0 in 0.00 W/m2 unknown
01:59 48.2 °F 48.2 °F 30.3 in West 1.2 mph 1.9 mph 96% 0 in 0.00 W/m2 unknown
02:04 48.2 °F 48.2 °F 30.3 in West 1.2 mph 1.9 mph 96% 0 in 0.00 W/m2 unknown
02:09 48.2 °F 48.2 °F 30.3 in WNW 1.2 mph 2.5 mph 96% 0 in 0.00 W/m2 unknown
02:14 48.2 °F 48.2 °F 30.3 in Calm   1.9 mph 96% 0 in 0.00 W/m2 unknown
02:19 48.2 °F 48.2 °F 30.3 in WNW 0.6 mph 1.2 mph 96% 0 in 0.00 W/m2 unknown
02:24 48.2 °F 48.2 °F 30.3 in Calm   1.2 mph 96% 0 in 0.00 W/m2 unknown
02:29 48.2 °F 46.4 °F 30.3 in WNW 0.6 mph 1.2 mph 96% 0 in 0.00 W/m2 unknown
02:34 48.2 °F 46.4 °F 30.3 in Calm   1.2 mph 96% 0 in 0.00 W/m2 unknown
02:39 48.2 °F 46.4 °F 30.3 in WSW 1.9 mph 3.7 mph 96% 0 in 0.00 W/m2 unknown
02:44 48.2 °F 46.4 °F 30.3 in SSW 2.5 mph 3.7 mph 96% 0 in 0.00 W/m2 unknown
02:49 48.2 °F 46.4 °F 30.3 in SSW 1.9 mph 3.7 mph 96% 0 in 0.00 W/m2 unknown
02:54 48.2 °F 46.4 °F 30.3 in SSW 1.9 mph 3.1 mph 96% 0 in 0.00 W/m2 unknown
02:59 48.2 °F 46.4 °F 30.3 in SSW 1.9 mph 3.7 mph 96% 0 in 0.00 W/m2 unknown
03:04 48.2 °F 46.4 °F 30.3 in Calm   1.9 mph 96% 0 in 0.00 W/m2 unknown
03:09 48.2 °F 46.4 °F 30.3 in SSW 0.6 mph 2.5 mph 96% 0 in 0.00 W/m2 unknown
03:14 48.2 °F 46.4 °F 30.3 in Calm   1.9 mph 96% 0 in 0.00 W/m2 unknown
03:19 48.2 °F 46.4 °F 30.3 in Calm   1.2 mph 96% 0 in 0.00 W/m2 unknown
03:24 48.2 °F 46.4 °F 30.3 in Calm     96% 0 in 0.00 W/m2 unknown
03:29 48.2 °F 46.4 °F 30.3 in Calm     96% 0 in 0.00 W/m2 unknown
03:34 48.2 °F 46.4 °F 30.3 in Calm     96% 0 in 0.00 W/m2 unknown
03:39 48.2 °F 46.4 °F 30.3 in Calm     96% 0 in 0.00 W/m2 unknown
03:44 48.2 °F 46.4 °F 30.3 in Calm     96% 0 in 0.00 W/m2 unknown
03:49 48.2 °F 46.4 °F 30.3 in Calm     96% 0 in 0.00 W/m2 unknown
03:54 48.2 °F 46.4 °F 30.3 in Calm     96% 0 in 0.00 W/m2 unknown
03:59 48.2 °F 46.4 °F 30.3 in Calm     96% 0 in 0.00 W/m2 unknown
04:04 48.2 °F 46.4 °F 30.3 in Calm     96% 0 in 0.00 W/m2 unknown
04:09 48.2 °F 46.4 °F 30.3 in Calm     96% 0 in 0.00 W/m2 unknown
04:14 48.2 °F 46.4 °F 30.3 in Calm     96% 0 in 0.00 W/m2 unknown
04:19 48.2 °F 46.4 °F 30.3 in Calm     96% 0 in 0.00 W/m2 unknown
04:24 48.2 °F 46.4 °F 30.3 in Calm     96% 0 in 0.00 W/m2 unknown
04:29 48.2 °F 46.4 °F 30.3 in NW 1.2 mph 3.1 mph 96% 0 in 0.00 W/m2 unknown
04:34 48.2 °F 46.4 °F 30.3 in NW 1.9 mph 3.7 mph 96% 0 in 0.00 W/m2 unknown
04:39 48.2 °F 46.4 °F 30.3 in NNW 1.9 mph 3.7 mph 96% 0 in 0.00 W/m2 unknown
04:44 48.2 °F 46.4 °F 30.3 in NW 1.9 mph 3.7 mph 96% 0 in 0.00 W/m2 unknown
04:49 48.2 °F 46.4 °F 30.3 in NW 1.9 mph 3.7 mph 96% 0 in 0.00 W/m2 unknown
04:54 48.2 °F 46.4 °F 30.3 in West 1.9 mph 3.1 mph 96% 0 in 0.00 W/m2 unknown
04:59 48.2 °F 46.4 °F 30.3 in West 1.9 mph 2.5 mph 96% 0 in 0.00 W/m2 unknown
05:04 48.2 °F 46.4 °F 30.3 in WNW 2.5 mph 3.7 mph 96% 0 in 0.00 W/m2 unknown
05:09 48.2 °F 46.4 °F 30.3 in WNW 2.5 mph 3.7 mph 96% 0 in 0.00 W/m2 unknown
05:14 48.2 °F 46.4 °F 30.3 in WNW 2.5 mph 3.7 mph 96% 0 in 0.00 W/m2 unknown
05:19 48.2 °F 46.4 °F 30.3 in WNW 2.5 mph 3.7 mph 96% 0 in 0.00 W/m2 unknown
05:24 48.2 °F 46.4 °F 30.3 in WNW 1.9 mph 3.7 mph 96% 0 in 0.00 W/m2 unknown
05:29 48.2 °F 46.4 °F 30.3 in NW 3.1 mph 3.7 mph 96% 0 in 0.00 W/m2 unknown
05:34 48.2 °F 46.4 °F 30.3 in NW 1.9 mph 3.1 mph 96% 0 in 0.00 W/m2 unknown
05:39 48.2 °F 46.4 °F 30.3 in NNW 2.5 mph 3.7 mph 96% 0 in 0.00 W/m2 unknown
05:44 48.2 °F 46.4 °F 30.3 in NNW 2.5 mph 3.7 mph 96% 0 in 0.00 W/m2 unknown
05:49 48.2 °F 46.4 °F 30.3 in NW 1.2 mph 3.1 mph 96% 0 in 0.00 W/m2 unknown
05:54 48.2 °F 46.4 °F 30.3 in NNW 1.2 mph 3.7 mph 96% 0 in 0.00 W/m2 unknown
05:59 48.2 °F 46.4 °F 30.3 in NNW 1.9 mph 3.7 mph 96% 0 in 0.00 W/m2 unknown
06:04 48.2 °F 46.4 °F 30.3 in NNW 2.5 mph 3.7 mph 96% 0 in 0.00 W/m2 unknown
06:09 48.2 °F 46.4 °F 30.3 in NNW 2.5 mph 3.7 mph 96% 0 in 0.00 W/m2 unknown
06:14 48.2 °F 46.4 °F 30.3 in NW 1.9 mph 3.7 mph 96% 0 in 0.00 W/m2 unknown
06:19 48.2 °F 46.4 °F 30.3 in NW 1.2 mph 3.1 mph 96% 0 in 0.00 W/m2 unknown
06:24 48.2 °F 46.4 °F 30.3 in WNW 1.9 mph 3.7 mph 96% 0 in 0.00 W/m2 unknown
06:29 48.2 °F 46.4 °F 30.3 in NNW 2.5 mph 3.7 mph 96% 0 in 0.00 W/m2 unknown
06:34 48.2 °F 46.4 °F 30.3 in NNE 2.5 mph 3.7 mph 96% 0 in 0.00 W/m2 unknown
06:39 48.2 °F 46.4 °F 30.3 in North 1.2 mph 3.1 mph 96% 0 in 0.00 W/m2 unknown
06:44 48.2 °F 46.4 °F 30.3 in NNW 1.2 mph 2.5 mph 96% 0 in 0.00 W/m2 unknown
06:49 48.2 °F 46.4 °F 30.3 in NW 1.2 mph 2.5 mph 96% 0 in 0.00 W/m2 unknown
06:54 48.2 °F 46.4 °F 30.3 in NW 1.9 mph 3.7 mph 96% 0 in 0.00 W/m2 unknown
06:59 48.2 °F 46.4 °F 30.3 in NW 1.9 mph 3.7 mph 96% 0 in 0.00 W/m2 unknown
07:04 48.2 °F 46.4 °F 30.3 in NNW 1.9 mph 3.1 mph 96% 0 in 0.00 W/m2 unknown
07:09 48.2 °F 46.4 °F 30.3 in Calm   1.2 mph 96% 0 in 0.00 W/m2 unknown
07:14 48.2 °F 46.4 °F 30.3 in Calm   1.2 mph 96% 0 in 0.00 W/m2 unknown
07:19 48.2 °F 46.4 °F 30.3 in NNW 0.6 mph 1.2 mph 96% 0 in 0.00 W/m2 unknown
07:24 48.2 °F 46.4 °F 30.3 in Calm   1.2 mph 96% 0 in 0.00 W/m2 unknown
07:29 48.2 °F 46.4 °F 30.3 in WNW 1.2 mph 2.5 mph 96% 0 in 0.00 W/m2 unknown
07:34 48.2 °F 46.4 °F 30.3 in WNW 1.2 mph 2.5 mph 96% 0 in 0.00 W/m2 unknown
07:39 48.2 °F 46.4 °F 30.3 in WNW 1.2 mph 2.5 mph 96% 0 in 0.00 W/m2 unknown
07:44 48.2 °F 46.4 °F 30.3 in West 1.2 mph 2.5 mph 96% 0 in 0.00 W/m2 unknown
07:49 48.2 °F 46.4 °F 30.3 in West 1.2 mph 2.5 mph 96% 0 in 0.00 W/m2 unknown
07:54 48.2 °F 46.4 °F 30.3 in WNW 1.2 mph 2.5 mph 96% 0 in 0.00 W/m2 unknown
07:59 48.2 °F 46.4 °F 30.3 in WNW 1.9 mph 2.5 mph 96% 0 in 0.00 W/m2 unknown
08:04 48.2 °F 46.4 °F 30.3 in WSW 2.5 mph 3.7 mph 96% 0 in 0.00 W/m2 unknown
08:09 48.2 °F 46.4 °F 30.3 in SW 3.1 mph 3.7 mph 96% 0 in 0.00 W/m2 unknown
08:14 48.2 °F 46.4 °F 30.3 in SW 1.9 mph 3.1 mph 96% 0 in 5.00 W/m2 unknown
08:19 48.2 °F 46.4 °F 30.3 in SW 1.9 mph 3.7 mph 96% 0 in 5.00 W/m2 unknown
08:24 48.2 °F 46.4 °F 30.3 in SSW 2.5 mph 3.7 mph 96% 0 in 7.00 W/m2 unknown
08:29 48.2 °F 46.4 °F 30.3 in SSW 2.5 mph 3.1 mph 96% 0 in 5.00 W/m2 unknown
08:34 48.2 °F 46.4 °F 30.3 in SSW 2.5 mph 3.7 mph 96% 0 in 7.00 W/m2 unknown
08:39 48.2 °F 46.4 °F 30.3 in SSW 1.2 mph 3.1 mph 96% 0 in 7.00 W/m2 unknown
08:44 48.2 °F 46.4 °F 30.3 in SW 2.5 mph 3.7 mph 96% 0 in 9.00 W/m2 unknown
08:49 48.2 °F 46.4 °F 30.3 in WSW 3.1 mph 3.7 mph 96% 0 in 19.00 W/m2 unknown
08:54 48.2 °F 46.4 °F 30.3 in WSW 2.5 mph 3.7 mph 96% 0 in 19.00 W/m2 unknown
08:59 48.2 °F 46.4 °F 30.3 in SW 3.1 mph 3.7 mph 96% 0 in 23.00 W/m2 unknown
09:04 48.2 °F 46.4 °F 30.3 in SW 2.5 mph 3.7 mph 96% 0 in 21.00 W/m2 unknown
09:09 48.2 °F 46.4 °F 30.3 in SSW 2.5 mph 3.7 mph 96% 0 in 21.00 W/m2 unknown
09:14 48.2 °F 46.4 °F 30.3 in WSW 2.5 mph 3.7 mph 96% 0 in 33.00 W/m2 unknown
09:19 48.2 °F 46.4 °F 30.3 in West 3.1 mph 5 mph 96% 0 in 37.00 W/m2 unknown
09:24 48.2 °F 46.4 °F 30.3 in WSW 1.9 mph 5 mph 96% 0 in 35.00 W/m2 unknown
09:29 48.2 °F 46.4 °F 30.3 in SW 3.1 mph 3.7 mph 96% 0 in 35.00 W/m2 unknown
09:34 48.2 °F 46.4 °F 30.3 in SW 3.7 mph 3.7 mph 96% 0 in 42.00 W/m2 unknown
09:39 48.2 °F 46.4 °F 30.3 in WSW 3.1 mph 3.7 mph 96% 0 in 25.00 W/m2 unknown
09:44 48.2 °F 46.4 °F 30.3 in SW 2.5 mph 3.7 mph 96% 0 in 37.00 W/m2 unknown
09:49 48.2 °F 46.4 °F 30.3 in SSW 2.5 mph 3.7 mph 96% 0 in 37.00 W/m2 unknown
09:54 48.2 °F 46.4 °F 30.3 in SSW 1.9 mph 3.1 mph 96% 0 in 37.00 W/m2 unknown
09:59 48.2 °F 46.4 °F 30.3 in SSW 2.5 mph 3.7 mph 96% 0 in 40.00 W/m2 unknown
10:04 48.2 °F 46.4 °F 30.3 in SSW 1.9 mph 3.7 mph 96% 0 in 40.00 W/m2 unknown
10:09 48.2 °F 46.4 °F 30.3 in SSW 1.2 mph 2.5 mph 96% 0 in 54.00 W/m2 unknown
10:14 48.2 °F 46.4 °F 30.3 in Calm   1.9 mph 96% 0 in 54.00 W/m2 unknown
10:19 48.2 °F 46.4 °F 30.3 in Calm     97% 0 in 60.00 W/m2 unknown
10:24 48.2 °F 46.4 °F 30.3 in Calm     97% 0 in 60.00 W/m2 unknown
10:29 48.2 °F 48.2 °F 30.3 in Calm     97% 0 in 86.00 W/m2 unknown
10:34 48.2 °F 48.2 °F 30.3 in SE 0.6 mph 2.5 mph 97% 0 in 179.00 W/m2 unknown
10:39 48.2 °F 48.2 °F 30.3 in SE 0.6 mph 1.2 mph 97% 0 in 179.00 W/m2 unknown
10:44 48.2 °F 48.2 °F 30.3 in South 0.6 mph 2.5 mph 96% 0 in 105.00 W/m2 unknown
10:49 48.2 °F 48.2 °F 30.3 in WSW 2.5 mph 3.7 mph 96% 0 in 109.00 W/m2 unknown
10:54 48.2 °F 48.2 °F 30.3 in SW 1.9 mph 3.7 mph 96% 0 in 107.00 W/m2 unknown
10:59 48.2 °F 48.2 °F 30.3 in SSW 3.1 mph 5 mph 96% 0 in 98.00 W/m2 unknown
11:04 48.2 °F 48.2 °F 30.3 in SSW 3.7 mph 5 mph 96% 0 in 109.00 W/m2 unknown
11:09 48.2 °F 48.2 °F 30.3 in SW 3.1 mph 5 mph 95% 0 in 104.00 W/m2 unknown
11:14 48.2 °F 48.2 °F 30.3 in WSW 2.5 mph 3.7 mph 95% 0 in 97.00 W/m2 unknown
11:19 48.2 °F 48.2 °F 30.3 in SW 2.5 mph 3.7 mph 95% 0 in 98.00 W/m2 unknown
11:24 50 °F 48.2 °F 30.3 in South 3.1 mph 3.7 mph 94% 0 in 95.00 W/m2 unknown
11:29 50 °F 48.2 °F 30.3 in SW 1.9 mph 3.7 mph 94% 0 in 97.00 W/m2 unknown
11:34 50 °F 48.2 °F 30.3 in SSW 3.7 mph 5 mph 94% 0 in 97.00 W/m2 unknown
11:39 50 °F 48.2 °F 30.3 in SSW 3.7 mph 5 mph 93% 0 in 84.00 W/m2 unknown
11:44 50 °F 48.2 °F 30.3 in SW 3.7 mph 6.2 mph 94% 0 in 91.00 W/m2 unknown
11:49 50 °F 48.2 °F 30.3 in SSW 5 mph 5.6 mph 94% 0 in 91.00 W/m2 unknown
11:54 50 °F 48.2 °F 30.3 in SW 4.3 mph 6.2 mph 94% 0 in 90.00 W/m2 unknown
11:59 50 °F 48.2 °F 30.3 in SSW 5 mph 6.2 mph 94% 0 in 102.00 W/m2 unknown
12:04 50 °F 48.2 °F 30.3 in SSW 5 mph 6.8 mph 94% 0 in 118.00 W/m2 unknown
12:09 50 °F 48.2 °F 30.3 in SW 5 mph 6.8 mph 94% 0 in 118.00 W/m2 unknown
12:14 50 °F 48.2 °F 30.3 in SSW 4.3 mph 5 mph 94% 0 in 111.00 W/m2 unknown
12:19 48.2 °F 48.2 °F 30.3 in SW 3.1 mph 5 mph 94% 0 in 111.00 W/m2 unknown
12:24 48.2 °F 48.2 °F 30.3 in SW 3.1 mph 5 mph 94% 0 in 91.00 W/m2 unknown
12:29 48.2 °F 48.2 °F 30.3 in SW 3.7 mph 5 mph 94% 0 in 91.00 W/m2 unknown
12:34 48.2 °F 48.2 °F 30.3 in SW 3.7 mph 5 mph 94% 0 in 91.00 W/m2 unknown
12:39 48.2 °F 48.2 °F 30.3 in SW 3.1 mph 5 mph 94% 0 in 97.00 W/m2 unknown
12:44 48.2 °F 48.2 °F 30.3 in SW 5 mph 6.8 mph 94% 0 in 109.00 W/m2 unknown
12:49 48.2 °F 48.2 °F 30.3 in SW 5.6 mph 6.8 mph 94% 0 in 109.00 W/m2 unknown
12:54 48.2 °F 48.2 °F 30.3 in WSW 3.7 mph 6.2 mph 94% 0 in 100.00 W/m2 unknown
12:59 50 °F 48.2 °F 30.3 in SW 3.1 mph 5 mph 94% 0 in 102.00 W/m2 unknown
13:04 50 °F 48.2 °F 30.3 in SW 3.1 mph 3.7 mph 94% 0 in 88.00 W/m2 unknown
13:09 50 °F 48.2 °F 30.3 in WSW 2.5 mph 3.7 mph 94% 0 in 102.00 W/m2 unknown
13:14 50 °F 48.2 °F 30.3 in SSW 1.2 mph 3.1 mph 93% 0 in 105.00 W/m2 unknown
13:19 50 °F 48.2 °F 30.3 in SW 3.1 mph 3.7 mph 93% 0 in 88.00 W/m2 unknown
13:24 50 °F 48.2 °F 30.3 in WSW 2.5 mph 3.7 mph 93% 0 in 86.00 W/m2 unknown
13:29 50 °F 48.2 °F 30.3 in WSW 2.5 mph 3.7 mph 93% 0 in 86.00 W/m2 unknown
13:34 50 °F 48.2 °F 30.3 in SSW 3.1 mph 3.7 mph 93% 0 in 77.00 W/m2 unknown
13:39 50 °F 48.2 °F 30.3 in SSW 3.7 mph 5 mph 93% 0 in 84.00 W/m2 unknown
13:44 50 °F 48.2 °F 30.3 in South 3.1 mph 5 mph 93% 0 in 77.00 W/m2 unknown
13:49 50 °F 48.2 °F 30.3 in South 2.5 mph 3.7 mph 93% 0 in 83.00 W/m2 unknown
13:54 50 °F 48.2 °F 30.3 in SW 2.5 mph 3.7 mph 93% 0 in 97.00 W/m2 unknown
13:59 50 °F 48.2 °F 30.3 in WSW 2.5 mph 3.7 mph 93% 0 in 102.00 W/m2 unknown
14:04 50 °F 48.2 °F 30.3 in WSW 1.9 mph 3.7 mph 92% 0 in 100.00 W/m2 unknown
14:09 50 °F 48.2 °F 30.3 in WSW 1.2 mph 3.1 mph 92% 0 in 81.00 W/m2 unknown
14:14 50 °F 48.2 °F 30.3 in WSW 1.2 mph 2.5 mph 92% 0 in 62.00 W/m2 unknown
14:19 50 °F 48.2 °F 30.3 in SW 1.2 mph 2.5 mph 92% 0 in 60.00 W/m2 unknown
14:24 50 °F 48.2 °F 30.3 in South 1.9 mph 3.7 mph 92% 0 in 62.00 W/m2 unknown
14:29 50 °F 48.2 °F 30.3 in ESE 1.9 mph 3.7 mph 92% 0 in 65.00 W/m2 unknown
14:34 50 °F 48.2 °F 30.3 in East 1.2 mph 3.1 mph 91% 0 in 70.00 W/m2 unknown
14:39 50 °F 48.2 °F 30.3 in SE 1.9 mph 3.7 mph 91% 0 in 76.00 W/m2 unknown
14:44 50 °F 48.2 °F 30.3 in South 3.1 mph 3.7 mph 91% 0 in 65.00 W/m2 unknown
14:49 50 °F 48.2 °F 30.3 in South 1.9 mph 3.7 mph 91% 0 in 65.00 W/m2 unknown
14:54 50 °F 48.2 °F 30.3 in South 1.2 mph 2.5 mph 91% 0 in 62.00 W/m2 unknown
14:59 50 °F 48.2 °F 30.3 in SE 1.2 mph 2.5 mph 91% 0 in 51.00 W/m2 unknown
15:04 50 °F 48.2 °F 30.3 in ESE 3.1 mph 3.7 mph 91% 0 in 63.00 W/m2 unknown
15:09 50 °F 48.2 °F 30.3 in ESE 2.5 mph 3.7 mph 91% 0 in 63.00 W/m2 unknown
15:14 50 °F 48.2 °F 30.3 in East 1.9 mph 3.1 mph 91% 0 in 53.00 W/m2 unknown
15:19 50 °F 48.2 °F 30.3 in South 3.1 mph 3.7 mph 91% 0 in 46.00 W/m2 unknown
15:24 50 °F 48.2 °F 30.3 in SSE 3.1 mph 3.7 mph 91% 0 in 46.00 W/m2 unknown
15:29 50 °F 48.2 °F 30.3 in SSE 2.5 mph 3.7 mph 91% 0 in 49.00 W/m2 unknown
15:34 50 °F 48.2 °F 30.3 in SSE 2.5 mph 3.7 mph 91% 0 in 47.00 W/m2 unknown
15:39 50 °F 48.2 °F 30.3 in SSE 1.9 mph 3.7 mph 91% 0 in 35.00 W/m2 unknown
15:44 50 °F 48.2 °F 30.3 in SSE 2.5 mph 3.7 mph 91% 0 in 35.00 W/m2 unknown
15:49 50 °F 48.2 °F 30.3 in South 2.5 mph 3.7 mph 91% 0 in 28.00 W/m2 unknown
15:54 50 °F 48.2 °F 30.3 in South 3.1 mph 3.7 mph 91% 0 in 23.00 W/m2 unknown
15:59 50 °F 46.4 °F 30.3 in SSW 3.1 mph 3.7 mph 91% 0 in 23.00 W/m2 unknown
16:04 50 °F 46.4 °F 30.3 in SW 3.1 mph 3.7 mph 91% 0 in 23.00 W/m2 unknown
16:09 50 °F 46.4 °F 30.3 in SSW 2.5 mph 3.7 mph 91% 0 in 23.00 W/m2 unknown
16:14 50 °F 48.2 °F 30.3 in South 1.9 mph 3.7 mph 95% 0 in 23.00 W/m2 unknown
16:19 50 °F 48.2 °F 30.3 in SSW 2.5 mph 3.7 mph 95% 0 in 16.00 W/m2 unknown
16:24 48.2 °F 46.4 °F 30.3 in SSW 2.5 mph 3.7 mph 91% 0 in 12.00 W/m2 unknown
16:29 48.2 °F 46.4 °F 30.3 in South 3.1 mph 5 mph 92% 0 in 9.00 W/m2 unknown
16:34 48.2 °F 46.4 °F 30.3 in South 3.1 mph 5 mph 92% 0 in 5.00 W/m2 unknown
16:39 48.2 °F 46.4 °F 30.3 in SSW 1.9 mph 3.7 mph 92% 0 in 0.00 W/m2 unknown
16:44 48.2 °F 46.4 °F 30.3 in SSW 1.9 mph 3.7 mph 92% 0 in 0.00 W/m2 unknown
16:49 48.2 °F 46.4 °F 30.3 in SSW 1.9 mph 3.1 mph 92% 0 in 0.00 W/m2 unknown
16:54 48.2 °F 46.4 °F 30.3 in SSW 1.9 mph 3.7 mph 92% 0 in 0.00 W/m2 unknown
16:59 48.2 °F 46.4 °F 30.3 in Calm   1.9 mph 92% 0 in 0.00 W/m2 unknown
17:04 48.2 °F 46.4 °F 30.3 in Calm     92% 0 in 0.00 W/m2 unknown
17:09 48.2 °F 46.4 °F 30.3 in Calm     92% 0 in 0.00 W/m2 unknown
17:14 48.2 °F 46.4 °F 30.3 in Calm     92% 0 in 0.00 W/m2 unknown
17:19 48.2 °F 46.4 °F 30.3 in Calm     93% 0 in 0.00 W/m2 unknown
17:24 48.2 °F 46.4 °F 30.3 in Calm     93% 0 in 0.00 W/m2 unknown
17:29 48.2 °F 46.4 °F 30.3 in Calm     93% 0 in 0.00 W/m2 unknown
17:34 48.2 °F 46.4 °F 30.3 in Calm     93% 0 in 0.00 W/m2 unknown
17:39 48.2 °F 46.4 °F 30.3 in Calm     93% 0 in 0.00 W/m2 unknown
17:44 48.2 °F 46.4 °F 30.3 in Calm     93% 0 in 0.00 W/m2 unknown
17:49 48.2 °F 46.4 °F 30.3 in Calm     93% 0 in 0.00 W/m2 unknown
17:54 48.2 °F 44.6 °F 30.3 in Calm     92% 0 in 0.00 W/m2 unknown
17:59 48.2 °F 44.6 °F 30.3 in Calm     92% 0 in 0.00 W/m2 unknown
18:04 46.4 °F 44.6 °F 30.3 in Calm     93% 0 in 0.00 W/m2 unknown
18:09 46.4 °F 44.6 °F 30.3 in Calm     92% 0 in 0.00 W/m2 unknown
18:14 46.4 °F 44.6 °F 30.3 in Calm     92% 0 in 0.00 W/m2 unknown
18:19 46.4 °F 44.6 °F 30.3 in Calm     93% 0 in 0.00 W/m2 unknown
18:24 46.4 °F 44.6 °F 30.3 in Calm     93% 0 in 0.00 W/m2 unknown
18:29 46.4 °F 44.6 °F 30.3 in Calm     92% 0 in 0.00 W/m2 unknown
18:34 46.4 °F 44.6 °F 30.3 in Calm     93% 0 in 0.00 W/m2 unknown
18:39 46.4 °F 44.6 °F 30.3 in Calm     93% 0 in 0.00 W/m2 unknown
18:44 46.4 °F 44.6 °F 30.3 in Calm     93% 0 in 0.00 W/m2 unknown
18:49 46.4 °F 44.6 °F 30.3 in Calm     93% 0 in 0.00 W/m2 unknown
18:54 46.4 °F 44.6 °F 30.3 in Calm     93% 0 in 0.00 W/m2 unknown
18:59 46.4 °F 44.6 °F 30.3 in Calm     93% 0 in 0.00 W/m2 unknown
19:04 46.4 °F 44.6 °F 30.3 in Calm     93% 0 in 0.00 W/m2 unknown
19:09 46.4 °F 44.6 °F 30.3 in Calm     94% 0 in 0.00 W/m2 unknown
19:14 46.4 °F 44.6 °F 30.3 in Calm     94% 0 in 0.00 W/m2 unknown
19:19 46.4 °F 44.6 °F 30.3 in Calm     94% 0 in 0.00 W/m2 unknown
19:24 46.4 °F 44.6 °F 30.3 in Calm     94% 0 in 0.00 W/m2 unknown
19:29 46.4 °F 44.6 °F 30.3 in Calm     94% 0 in 0.00 W/m2 unknown
19:34 44.6 °F 44.6 °F 30.3 in Calm     94% 0 in 0.00 W/m2 unknown
19:39 44.6 °F 44.6 °F 30.3 in Calm     94% 0 in 0.00 W/m2 unknown
19:44 44.6 °F 42.8 °F 30.3 in Calm     94% 0 in 0.00 W/m2 unknown
19:49 44.6 °F 42.8 °F 30.3 in Calm     94% 0 in 0.00 W/m2 unknown
19:54 44.6 °F 42.8 °F 30.3 in Calm     94% 0 in 0.00 W/m2 unknown
19:59 44.6 °F 42.8 °F 30.3 in Calm     94% 0 in 0.00 W/m2 unknown
20:04 44.6 °F 42.8 °F 30.3 in Calm     94% 0 in 0.00 W/m2 unknown
20:09 44.6 °F 42.8 °F 30.3 in Calm     94% 0 in 0.00 W/m2 unknown
20:14 44.6 °F 44.6 °F 30.3 in Calm     94% 0 in 0.00 W/m2 unknown
20:19 44.6 °F 44.6 °F 30.3 in Calm     94% 0 in 0.00 W/m2 unknown
20:24 44.6 °F 44.6 °F 30.3 in Calm     94% 0 in 0.00 W/m2 unknown
20:29 44.6 °F 44.6 °F 30.3 in Calm     94% 0 in 0.00 W/m2 unknown
20:34 44.6 °F 44.6 °F 30.3 in Calm     94% 0 in 0.00 W/m2 unknown
20:39 44.6 °F 44.6 °F 30.3 in Calm     95% 0 in 0.00 W/m2 unknown
20:44 46.4 °F 44.6 °F 30.3 in Calm     95% 0 in 0.00 W/m2 unknown
20:49 46.4 °F 44.6 °F 30.3 in Calm     95% 0 in 0.00 W/m2 unknown
20:54 46.4 °F 44.6 °F 30.3 in Calm     95% 0 in 0.00 W/m2 unknown
20:59 46.4 °F 44.6 °F 30.3 in Calm     95% 0 in 0.00 W/m2 unknown
21:04 46.4 °F 44.6 °F 30.3 in Calm     95% 0 in 0.00 W/m2 unknown
21:09 46.4 °F 44.6 °F 30.3 in Calm     95% 0 in 0.00 W/m2 unknown
21:14 46.4 °F 44.6 °F 30.3 in Calm     95% 0 in 0.00 W/m2 unknown
21:19 46.4 °F 44.6 °F 30.3 in Calm     95% 0 in 0.00 W/m2 unknown
21:24 46.4 °F 44.6 °F 30.3 in Calm     95% 0 in 0.00 W/m2 unknown
21:29 44.6 °F 44.6 °F 30.3 in Calm     95% 0 in 0.00 W/m2 unknown
21:34 46.4 °F 44.6 °F 30.3 in Calm     95% 0 in 0.00 W/m2 unknown
21:39 46.4 °F 44.6 °F 30.3 in Calm     95% 0 in 0.00 W/m2 unknown
21:44 46.4 °F 44.6 °F 30.3 in Calm     95% 0 in 0.00 W/m2 unknown
21:49 46.4 °F 44.6 °F 30.3 in Calm     95% 0 in 0.00 W/m2 unknown
21:54 46.4 °F 44.6 °F 30.3 in Calm     95% 0 in 0.00 W/m2 unknown
21:59 46.4 °F 44.6 °F 30.3 in Calm     95% 0 in 0.00 W/m2 unknown
22:04 46.4 °F 44.6 °F 30.3 in North 1.9 mph 3.1 mph 95% 0 in 0.00 W/m2 unknown
22:09 46.4 °F 44.6 °F 30.3 in NNW 2.5 mph 3.7 mph 95% 0 in 0.00 W/m2 unknown
22:14 46.4 °F 44.6 °F 30.3 in NNW 1.2 mph 3.1 mph 95% 0 in 0.00 W/m2 unknown
22:19 46.4 °F 44.6 °F 30.3 in North 1.9 mph 3.1 mph 95% 0 in 0.00 W/m2 unknown
22:24 46.4 °F 44.6 °F 30.3 in NNE 1.2 mph 3.1 mph 95% 0 in 0.00 W/m2 unknown
22:29 46.4 °F 44.6 °F 30.3 in Calm     95% 0 in 0.00 W/m2 unknown
22:34 46.4 °F 44.6 °F 30.3 in Calm     95% 0 in 0.00 W/m2 unknown
22:39 46.4 °F 44.6 °F 30.3 in Calm     95% 0 in 0.00 W/m2 unknown
22:44 46.4 °F 44.6 °F 30.3 in NNE 1.2 mph 2.5 mph 95% 0 in 0.00 W/m2 unknown
22:49 46.4 °F 44.6 °F 30.3 in NNE 1.2 mph 2.5 mph 95% 0 in 0.00 W/m2 unknown
22:54 46.4 °F 44.6 °F 30.3 in NNE 0.6 mph 1.9 mph 95% 0 in 0.00 W/m2 unknown
22:59 46.4 °F 44.6 °F 30.4 in NNE 0.6 mph 1.9 mph 95% 0 in 0.00 W/m2 unknown
23:04 46.4 °F 44.6 °F 30.4 in NNE 1.2 mph 2.5 mph 95% 0 in 0.00 W/m2 unknown
23:09 46.4 °F 44.6 °F 30.4 in NNE 2.5 mph 3.7 mph 95% 0 in 0.00 W/m2 unknown
23:14 46.4 °F 44.6 °F 30.4 in NNE 2.5 mph 3.7 mph 95% 0 in 0.00 W/m2 unknown
23:19 46.4 °F 44.6 °F 30.4 in NNE 1.9 mph 3.1 mph 95% 0 in 0.00 W/m2 unknown
23:24 46.4 °F 44.6 °F 30.4 in NNE 1.2 mph 2.5 mph 95% 0 in 0.00 W/m2 unknown
23:29 46.4 °F 44.6 °F 30.4 in NNE 1.2 mph 2.5 mph 96% 0 in 0.00 W/m2 unknown
23:34 46.4 °F 44.6 °F 30.4 in North 1.2 mph 2.5 mph 96% 0 in 0.00 W/m2 unknown
23:39 46.4 °F 44.6 °F 30.4 in NNE 1.9 mph 2.5 mph 96% 0 in 0.00 W/m2 unknown
23:44 46.4 °F 44.6 °F 30.4 in NNE 1.9 mph 2.5 mph 96% 0 in 0.00 W/m2 unknown
23:49 46.4 °F 44.6 °F 30.4 in NNE 1.9 mph 3.7 mph 96% 0 in 0.00 W/m2 unknown
23:54 46.4 °F 44.6 °F 30.4 in NNE 1.9 mph 3.7 mph 96% 0 in 0.00 W/m2 unknown
23:59 46.4 °F 44.6 °F 30.4 in Calm   1.9 mph 96% 0 in 0.00 W/m2 unknown
Stazione Meteorologica MeteoMincio Rivalta s/M (MN)
Con i complimenti di Weather Underground - 4 mb



METEO PILLOLE
Il ciclone tropicale di maggiore durata
Oceano Pacifico
Il sistema di tempeste battezzato John percorre in lungo e in largo il Pacifico per ben 31 giorni, tra l'agosto e il settembre 1994.
Share

Non seguire questo link o sarai bannato dal sito!